De Peyster, New York
Current Conditions -  °F | °C
As of 5:58 PM on Monday 20 Oct 2014 (Local Time) from KGTB Reporting Station
Broken Clouds Broken Clouds  
Wind Chill: 10°   Ceiling: 5000
Heat Index: 10°   Visibility: 10mi
Dew Point:   Wind: 7mph
Humidity: 63%   Direction: 200°SSW
Pressure: 29.86"   Gusts: NA
Location:  44.55°N, 75.43°W
Report Text: KGTB 202158Z AUTO 20006KT 10SM BKN050 BKN090 10/03 A2986 RMK AO2 DZE2100 SLP116 P0000 T01020034
Loading
Personal Weather Stations






























Interactive Weather Map
Tropical Storm Tracking
New forecast layout! Learn more

10-Day Weather Forecast

Advertisements
Track Severe Weather on mobile